Time;durP1;ratioP1;P1;durP2;ratioP2;P2;SDS_P1;SDS_P2;PMS_P1;PMS_P2;Temp;Humidity;BMP_temperature;BMP_pressure;BME280_temperature;BME280_humidity;BME280_pressure;Samples;Min_cycle;Max_cycle;Signal;HPM_P1;HPM_P2
2021/12/12 00:01:30;;;;;;;7.97;5.80;;;5.20;99.90;;;;;;4975725;28;20444;-47
2021/12/12 00:04:09;;;;;;;14.63;5.90;;;5.20;99.90;;;;;;4976501;28;20469;-51
2021/12/12 00:06:39;;;;;;;11.60;5.90;;;5.30;99.90;;;;;;4978574;28;20424;-50
2021/12/12 00:09:10;;;;;;;7.10;5.07;;;5.20;99.90;;;;;;4976353;28;20541;-51
2021/12/12 00:11:37;;;;;;;12.50;6.50;;;5.20;99.90;;;;;;4973899;28;20480;-51
2021/12/12 00:14:17;;;;;;;7.00;5.10;;;5.10;99.90;;;;;;4976500;28;20816;-50
2021/12/12 00:16:44;;;;;;;7.23;5.70;;;5.10;99.90;;;;;;4974071;28;20441;-52
2021/12/12 00:19:10;;;;;;;8.73;6.20;;;5.20;99.90;;;;;;4975070;28;20448;-49
2021/12/12 00:21:38;;;;;;;11.93;5.77;;;5.10;99.90;;;;;;4975940;28;20467;-49
2021/12/12 00:24:06;;;;;;;14.37;6.13;;;5.10;99.90;;;;;;4977219;28;20459;-48
2021/12/12 00:26:32;;;;;;;7.13;5.13;;;5.10;99.90;;;;;;4976750;28;20473;-48
2021/12/12 00:28:58;;;;;;;10.37;5.07;;;5.10;99.90;;;;;;4973644;28;20480;-49
2021/12/12 00:31:26;;;;;;;10.13;5.97;;;5.10;99.90;;;;;;4977931;28;20213;-50
2021/12/12 00:33:54;;;;;;;7.23;5.00;;;4.90;99.90;;;;;;4974497;28;21109;-47
2021/12/12 00:36:22;;;;;;;8.17;5.13;;;4.80;99.90;;;;;;4976978;28;20984;-47
2021/12/12 00:38:54;;;;;;;8.90;6.00;;;4.90;99.90;;;;;;4975611;28;20457;-51
2021/12/12 00:41:46;;;;;;;9.10;4.87;;;4.90;99.90;;;;;;4973251;28;20446;-47
2021/12/12 00:44:14;;;;;;;14.20;5.30;;;5.00;99.90;;;;;;4971173;28;20492;-49
2021/12/12 00:46:40;;;;;;;8.93;4.90;;;5.10;99.90;;;;;;4978995;28;20431;-50
2021/12/12 00:49:06;;;;;;;5.97;4.73;;;5.00;99.90;;;;;;4978042;28;20855;-49
2021/12/12 00:51:35;;;;;;;8.00;4.70;;;5.00;99.90;;;;;;4974433;28;20221;-49
2021/12/12 00:54:03;;;;;;;9.30;4.70;;;5.10;99.90;;;;;;4977191;28;20541;-46
2021/12/12 00:56:28;;;;;;;13.77;4.53;;;5.00;99.90;;;;;;4973428;28;20419;-47
2021/12/12 00:58:54;;;;;;;8.17;4.63;;;5.10;99.90;;;;;;4979463;28;20440;-49
2021/12/12 01:01:29;;;;;;;7.97;4.57;;;5.10;99.90;;;;;;4975091;28;20665;-47
2021/12/12 01:04:00;;;;;;;7.40;4.07;;;5.20;99.90;;;;;;4977694;28;20481;-50
2021/12/12 01:06:26;;;;;;;9.63;4.07;;;5.30;99.90;;;;;;4978142;28;20965;-47
2021/12/12 01:08:56;;;;;;;7.60;4.13;;;5.20;99.90;;;;;;4976848;28;20502;-48
2021/12/12 01:11:45;;;;;;;6.33;4.27;;;5.10;99.90;;;;;;4973560;28;20472;-48
2021/12/12 01:14:13;;;;;;;11.40;5.37;;;5.20;99.90;;;;;;4978463;28;20571;-49
2021/12/12 01:16:47;;;;;;;5.83;4.53;;;5.20;99.90;;;;;;4976796;28;20437;-46
2021/12/12 01:19:21;;;;;;;9.97;4.80;;;5.10;99.90;;;;;;4977049;28;20439;-50
2021/12/12 01:21:51;;;;;;;7.57;4.20;;;5.10;99.90;;;;;;4976183;28;20522;-50
2021/12/12 01:24:42;;;;;;;7.13;4.00;;;5.10;99.90;;;;;;4977205;28;20492;-49
2021/12/12 01:27:09;;;;;;;6.37;4.80;;;5.10;99.90;;;;;;4978326;28;21012;-48
2021/12/12 01:29:35;;;;;;;4.97;3.77;;;5.20;99.90;;;;;;4974812;28;20448;-48
2021/12/12 01:32:03;;;;;;;6.73;3.80;;;5.20;99.90;;;;;;4978857;28;20435;-48
2021/12/12 01:34:31;;;;;;;7.23;3.93;;;5.20;99.90;;;;;;4978059;28;20441;-49
2021/12/12 01:37:22;;;;;;;11.97;4.23;;;5.10;99.90;;;;;;4976750;28;20532;-49
2021/12/12 01:39:48;;;;;;;13.40;4.17;;;5.20;99.90;;;;;;4978188;28;20597;-48
2021/12/12 01:42:25;;;;;;;6.07;3.90;;;5.10;99.90;;;;;;4977269;28;20476;-51
2021/12/12 01:45:00;;;;;;;10.50;4.47;;;5.00;99.90;;;;;;4978920;28;20285;-49
2021/12/12 01:47:36;;;;;;;6.33;3.80;;;5.00;99.90;;;;;;4979438;28;20440;-53
2021/12/12 01:50:09;;;;;;;5.43;4.57;;;4.90;99.90;;;;;;4976917;28;20866;-48
2021/12/12 01:52:36;;;;;;;8.20;4.73;;;5.00;99.90;;;;;;4974552;28;20445;-49
2021/12/12 01:55:23;;;;;;;7.40;3.87;;;5.10;99.90;;;;;;4979186;28;20464;-50
2021/12/12 01:57:50;;;;;;;9.13;4.47;;;5.00;99.90;;;;;;4978155;28;20857;-49
2021/12/12 02:00:30;;;;;;;7.17;4.40;;;5.00;99.90;;;;;;4974783;28;20799;-48
2021/12/12 02:02:57;;;;;;;8.63;3.93;;;5.10;99.90;;;;;;4977355;28;20438;-52
2021/12/12 02:05:26;;;;;;;7.13;4.00;;;5.00;99.90;;;;;;4977382;28;20461;-48
2021/12/12 02:08:00;;;;;;;5.30;4.73;;;4.90;99.90;;;;;;4976058;28;20967;-49
2021/12/12 02:10:31;;;;;;;8.30;4.63;;;4.90;99.90;;;;;;4976661;28;20472;-48
2021/12/12 02:13:06;;;;;;;9.30;5.10;;;5.10;99.90;;;;;;4974368;28;20445;-49
2021/12/12 02:15:34;;;;;;;5.40;4.27;;;5.20;99.90;;;;;;4975426;28;21073;-46
2021/12/12 02:18:02;;;;;;;8.77;4.37;;;5.10;99.90;;;;;;4977587;28;20434;-49
2021/12/12 02:21:05;;;;;;;6.70;3.60;;;5.10;99.90;;;;;;4978879;28;21118;-48
2021/12/12 02:23:29;;;;;;;4.83;3.53;;;5.30;99.90;;;;;;4980734;28;20453;-46
2021/12/12 02:37:03;;;;;;;5.40;3.70;;;5.20;99.90;;;;;;4980270;28;20428;-47
2021/12/12 02:39:29;;;;;;;7.40;4.33;;;5.30;99.90;;;;;;4978998;28;20973;-49
2021/12/12 02:41:59;;;;;;;8.57;4.07;;;5.50;99.90;;;;;;4982200;28;20516;-53
2021/12/12 02:44:29;;;;;;;5.77;3.57;;;5.40;99.90;;;;;;4977606;28;20218;-47
2021/12/12 02:46:58;;;;;;;6.93;3.50;;;5.50;99.90;;;;;;4978265;28;20445;-49
2021/12/12 02:49:42;;;;;;;9.27;3.87;;;5.70;99.90;;;;;;4983375;28;20897;-49
2021/12/12 02:52:14;;;;;;;9.43;4.20;;;5.70;99.90;;;;;;4977922;28;20432;-50
2021/12/12 02:54:40;;;;;;;7.90;3.63;;;5.60;99.90;;;;;;4978868;28;20453;-47
2021/12/12 02:57:06;;;;;;;9.60;4.00;;;5.60;99.90;;;;;;4982244;28;20445;-48
2021/12/12 02:59:35;;;;;;;4.53;3.20;;;5.70;99.90;;;;;;4978424;28;20460;-49
2021/12/12 03:02:09;;;;;;;7.40;4.40;;;5.80;99.90;;;;;;4980888;28;20441;-52
2021/12/12 03:04:35;;;;;;;7.30;4.00;;;5.80;99.90;;;;;;4978980;28;20459;-49
2021/12/12 03:07:05;;;;;;;5.20;3.47;;;5.70;99.90;;;;;;4978612;28;20434;-48
2021/12/12 03:09:37;;;;;;;3.77;3.37;;;5.50;99.90;;;;;;4980471;28;21165;-46
2021/12/12 03:12:08;;;;;;;4.33;3.17;;;5.50;99.90;;;;;;4979418;28;20445;-48
2021/12/12 03:14:35;;;;;;;10.50;3.53;;;5.40;99.90;;;;;;4980722;28;21013;-52
2021/12/12 03:17:06;;;;;;;6.97;3.70;;;5.40;99.90;;;;;;4980427;28;20436;-45
2021/12/12 03:19:32;;;;;;;7.00;3.50;;;5.40;99.90;;;;;;4975540;28;20456;-47
2021/12/12 03:21:58;;;;;;;4.60;3.37;;;5.50;99.90;;;;;;4981484;28;20851;-46
2021/12/12 03:24:26;;;;;;;10.80;3.33;;;5.50;99.90;;;;;;4975911;28;20615;-50
2021/12/12 03:26:56;;;;;;;8.40;3.93;;;5.50;99.90;;;;;;4977322;28;20668;-53
2021/12/12 03:29:22;;;;;;;6.73;2.93;;;5.50;99.90;;;;;;4977456;28;20425;-47
2021/12/12 03:31:52;;;;;;;7.40;3.93;;;5.50;99.90;;;;;;4978468;28;20469;-48
2021/12/12 03:34:21;;;;;;;5.87;3.87;;;5.40;99.90;;;;;;4977680;28;21058;-45
2021/12/12 03:36:48;;;;;;;6.20;3.63;;;5.50;99.90;;;;;;4980732;28;20480;-51
2021/12/12 03:39:42;;;;;;;7.10;3.80;;;5.60;99.90;;;;;;4980322;28;20779;-48
2021/12/12 03:42:15;;;;;;;6.80;3.17;;;5.40;99.90;;;;;;4977460;28;20436;-49
2021/12/12 03:44:43;;;;;;;6.60;3.67;;;5.40;99.90;;;;;;4977856;28;20507;-52
2021/12/12 03:47:23;;;;;;;6.50;3.30;;;5.40;99.90;;;;;;4977350;28;20433;-50
2021/12/12 03:49:50;;;;;;;4.90;3.10;;;5.50;99.90;;;;;;4976847;28;20465;-51
2021/12/12 03:52:19;;;;;;;6.97;3.30;;;5.40;99.90;;;;;;4977920;28;20425;-49
2021/12/12 03:54:45;;;;;;;6.47;3.57;;;5.30;99.90;;;;;;4975759;28;20997;-47
2021/12/12 03:57:11;;;;;;;6.93;3.77;;;5.30;99.90;;;;;;4980269;28;20520;-48
2021/12/12 03:59:37;;;;;;;5.83;3.50;;;5.30;99.90;;;;;;4978550;28;20524;-48
2021/12/12 04:02:04;;;;;;;5.53;3.63;;;5.20;99.90;;;;;;4979687;28;20430;-54
2021/12/12 04:04:40;;;;;;;6.87;4.27;;;5.20;99.90;;;;;;4978796;28;20212;-47
2021/12/12 04:07:10;;;;;;;13.93;4.43;;;5.20;99.90;;;;;;4979090;28;20494;-50
2021/12/12 04:09:37;;;;;;;5.33;3.90;;;5.20;99.90;;;;;;4977598;28;20475;-48
2021/12/12 04:12:06;;;;;;;7.40;4.40;;;5.10;99.90;;;;;;4978964;28;20434;-52
2021/12/12 04:14:31;;;;;;;3.87;3.37;;;5.10;99.90;;;;;;4978314;28;20456;-49
2021/12/12 04:17:02;;;;;;;7.33;4.73;;;5.10;99.90;;;;;;4977655;28;20571;-48
2021/12/12 04:19:28;;;;;;;5.03;3.70;;;5.00;99.90;;;;;;4977610;28;20535;-50
2021/12/12 04:21:54;;;;;;;11.33;4.40;;;4.90;99.90;;;;;;4980463;28;20452;-50
2021/12/12 04:24:26;;;;;;;5.17;4.53;;;4.90;99.90;;;;;;4977158;28;20221;-52
2021/12/12 04:26:53;;;;;;;7.60;3.87;;;5.00;99.90;;;;;;4994280;28;20440;-48
2021/12/12 04:29:28;;;;;;;9.90;4.30;;;4.90;99.90;;;;;;4978578;28;20527;-49
2021/12/12 04:31:56;;;;;;;7.57;4.73;;;4.90;99.90;;;;;;4977362;28;20819;-49
2021/12/12 04:34:25;;;;;;;7.37;4.93;;;4.90;99.90;;;;;;4978772;28;20476;-49
2021/12/12 04:36:51;;;;;;;9.80;5.00;;;4.90;99.90;;;;;;4977180;28;20475;-50
2021/12/12 04:39:29;;;;;;;8.27;4.73;;;4.90;99.90;;;;;;4977592;28;20463;-49
2021/12/12 04:42:00;;;;;;;8.27;4.60;;;4.90;99.90;;;;;;4976432;28;20465;-48
2021/12/12 04:44:30;;;;;;;6.63;4.83;;;4.80;99.90;;;;;;4992123;28;20465;-51
2021/12/12 04:49:58;;;;;;;5.93;4.40;;;4.80;99.90;;;;;;4975419;28;20476;-49
2021/12/12 04:52:37;;;;;;;7.27;4.60;;;4.70;99.90;;;;;;4976092;28;20437;-49
2021/12/12 04:55:18;;;;;;;6.70;5.20;;;4.80;99.90;;;;;;4977433;28;20816;-52
2021/12/12 04:57:56;;;;;;;6.20;3.97;;;4.80;99.90;;;;;;4976088;28;20444;-49
2021/12/12 05:00:30;;;;;;;5.73;4.33;;;5.00;99.90;;;;;;4977224;28;20430;-49
2021/12/12 05:03:27;;;;;;;7.30;4.03;;;5.00;99.90;;;;;;4980288;28;20780;-49
2021/12/12 05:05:57;;;;;;;6.07;4.07;;;5.00;99.90;;;;;;4976872;28;20465;-49
2021/12/12 05:08:26;;;;;;;7.60;4.50;;;4.90;99.90;;;;;;4977662;28;20437;-48
2021/12/12 05:11:09;;;;;;;8.20;4.27;;;4.90;99.90;;;;;;4977460;28;20497;-49
2021/12/12 05:13:47;;;;;;;8.40;4.20;;;4.80;99.90;;;;;;4977450;28;20870;-50
2021/12/12 05:16:23;;;;;;;6.90;3.97;;;4.70;99.90;;;;;;4979110;28;20420;-48
2021/12/12 05:18:53;;;;;;;7.57;4.27;;;4.70;99.90;;;;;;4977949;28;20519;-49
2021/12/12 05:21:27;;;;;;;6.90;4.20;;;4.70;99.90;;;;;;4975915;28;20528;-46
2021/12/12 05:23:58;;;;;;;9.20;4.40;;;4.50;99.90;;;;;;4975892;28;20463;-48
2021/12/12 05:26:29;;;;;;;6.40;4.10;;;4.50;99.90;;;;;;4977019;28;20437;-51
2021/12/12 05:29:02;;;;;;;9.20;4.77;;;4.50;99.90;;;;;;4975759;28;20994;-50
2021/12/12 05:31:29;;;;;;;5.50;3.60;;;4.40;99.90;;;;;;4992380;28;20556;-48
2021/12/12 05:33:55;;;;;;;13.47;5.00;;;4.60;99.90;;;;;;4977117;28;20468;-49
2021/12/12 05:36:21;;;;;;;8.90;4.07;;;4.60;99.90;;;;;;4978574;28;20958;-51
2021/12/12 05:38:48;;;;;;;5.83;4.50;;;4.60;99.90;;;;;;4977242;28;20441;-46
2021/12/12 05:41:19;;;;;;;8.20;4.80;;;4.60;99.90;;;;;;4973946;28;20523;-49
2021/12/12 05:43:52;;;;;;;7.57;4.60;;;4.50;99.90;;;;;;4979340;28;20904;-49
2021/12/12 05:46:19;;;;;;;10.17;4.30;;;4.50;99.90;;;;;;4975432;28;20442;-48
2021/12/12 05:48:47;;;;;;;5.77;4.23;;;4.50;99.90;;;;;;4979898;28;20946;-47
2021/12/12 05:51:14;;;;;;;4.87;3.70;;;4.50;99.90;;;;;;4975066;28;20464;-47
2021/12/12 05:53:40;;;;;;;6.77;4.40;;;4.40;99.90;;;;;;4975666;28;20507;-47
2021/12/12 05:56:07;;;;;;;5.80;3.93;;;4.50;99.90;;;;;;4981780;28;20436;-48
2021/12/12 05:58:34;;;;;;;8.60;3.63;;;4.50;99.90;;;;;;4980281;28;20428;-48
2021/12/12 06:01:09;;;;;;;8.47;3.70;;;4.50;99.90;;;;;;4982268;28;20947;-47
2021/12/12 06:03:37;;;;;;;9.27;4.07;;;4.30;99.90;;;;;;4981107;28;20436;-50
2021/12/12 06:06:08;;;;;;;4.90;3.00;;;4.30;99.90;;;;;;4980837;28;20437;-48
2021/12/12 06:08:34;;;;;;;5.67;3.60;;;4.30;99.90;;;;;;4979885;28;20436;-47
2021/12/12 06:11:01;;;;;;;4.10;3.40;;;4.20;99.90;;;;;;4980830;28;20508;-48
2021/12/12 06:13:28;;;;;;;4.63;3.17;;;4.30;99.90;;;;;;4980865;28;20474;-48
2021/12/12 06:15:55;;;;;;;9.07;3.87;;;4.20;99.90;;;;;;4981382;28;20449;-51
2021/12/12 06:18:24;;;;;;;6.00;3.53;;;4.20;99.90;;;;;;4980183;28;22112;-46
2021/12/12 06:20:51;;;;;;;4.50;3.97;;;4.30;99.90;;;;;;4980342;28;20851;-48
2021/12/12 06:23:18;;;;;;;7.90;3.87;;;4.40;99.90;;;;;;4979884;28;20445;-49
2021/12/12 06:25:45;;;;;;;6.10;3.33;;;4.40;99.90;;;;;;4981931;28;20465;-48
2021/12/12 06:28:15;;;;;;;3.37;3.07;;;4.40;99.90;;;;;;4981287;28;20444;-46
2021/12/12 06:30:42;;;;;;;12.53;3.53;;;4.40;99.90;;;;;;4982195;28;20847;-46
2021/12/12 06:33:10;;;;;;;7.10;3.63;;;4.40;99.90;;;;;;4981510;28;20449;-50
2021/12/12 06:35:36;;;;;;;6.27;3.63;;;4.30;99.90;;;;;;4979103;28;20469;-50
2021/12/12 06:38:05;;;;;;;8.27;3.10;;;4.40;99.90;;;;;;4979943;28;20473;-46
2021/12/12 06:40:32;;;;;;;7.10;4.00;;;4.40;99.90;;;;;;4980463;28;20436;-47
2021/12/12 06:43:01;;;;;;;7.80;3.50;;;4.50;99.90;;;;;;4979339;28;20561;-50
2021/12/12 06:45:27;;;;;;;4.73;3.63;;;4.40;99.90;;;;;;4978390;28;20472;-46
2021/12/12 06:47:54;;;;;;;4.37;3.53;;;4.40;99.90;;;;;;4977514;28;20962;-46
2021/12/12 06:50:21;;;;;;;5.93;3.97;;;4.40;99.90;;;;;;4977913;28;20551;-47
2021/12/12 06:52:48;;;;;;;6.47;3.40;;;4.40;99.90;;;;;;4981045;28;20441;-48
2021/12/12 06:55:14;;;;;;;4.67;3.20;;;4.50;99.90;;;;;;4982879;28;20869;-48
2021/12/12 06:57:41;;;;;;;5.97;3.80;;;4.50;99.90;;;;;;4979578;28;20451;-51
2021/12/12 07:00:13;;;;;;;6.23;3.77;;;4.50;99.90;;;;;;4980803;28;20485;-46
2021/12/12 07:02:41;;;;;;;6.07;3.60;;;4.50;99.90;;;;;;4978701;28;20438;-48
2021/12/12 07:05:10;;;;;;;6.60;3.80;;;4.50;99.90;;;;;;4976106;28;20456;-46
2021/12/12 07:07:36;;;;;;;3.33;3.03;;;4.30;99.90;;;;;;4978818;28;20437;-47
2021/12/12 07:10:03;;;;;;;6.33;4.73;;;4.50;99.90;;;;;;4974959;28;21024;-50
2021/12/12 07:12:29;;;;;;;5.80;3.67;;;4.40;99.90;;;;;;4979322;28;20798;-48
2021/12/12 07:14:55;;;;;;;6.50;3.90;;;4.40;99.90;;;;;;4980797;28;20516;-51
2021/12/12 07:17:22;;;;;;;7.83;3.83;;;4.50;99.90;;;;;;4977316;28;20437;-50
2021/12/12 07:19:48;;;;;;;7.87;3.73;;;4.50;99.90;;;;;;4979691;28;20596;-47
2021/12/12 07:22:14;;;;;;;3.60;3.30;;;4.60;99.90;;;;;;4977033;28;20524;-47
2021/12/12 07:24:42;;;;;;;4.77;4.20;;;4.60;99.90;;;;;;4975557;28;20452;-52
2021/12/12 07:27:08;;;;;;;4.70;4.10;;;4.70;99.90;;;;;;4978348;28;20445;-49
2021/12/12 07:29:35;;;;;;;6.00;3.70;;;4.70;99.90;;;;;;4977200;28;20458;-48
2021/12/12 07:32:02;;;;;;;8.07;4.20;;;4.40;99.90;;;;;;4975132;28;20464;-47
2021/12/12 07:34:29;;;;;;;6.97;3.80;;;4.50;99.90;;;;;;4977399;28;21147;-49
2021/12/12 07:36:59;;;;;;;4.60;3.63;;;4.60;99.90;;;;;;4969926;28;21167;-47
2021/12/12 07:39:26;;;;;;;5.20;3.40;;;4.80;99.90;;;;;;4972175;28;20441;-48
2021/12/12 07:41:54;;;;;;;7.03;4.00;;;4.80;99.90;;;;;;4975290;28;20434;-47
2021/12/12 07:44:24;;;;;;;7.33;3.40;;;4.70;99.90;;;;;;4975349;28;20476;-50
2021/12/12 07:46:51;;;;;;;7.37;3.63;;;4.70;99.90;;;;;;4977090;28;20791;-49
2021/12/12 07:49:29;;;;;;;6.13;3.63;;;4.70;99.90;;;;;;4975168;28;20938;-48
2021/12/12 07:51:55;;;;;;;12.60;4.73;;;4.80;99.90;;;;;;5022649;22;20487;-51
2021/12/12 07:54:21;;;;;;;6.83;4.23;;;4.70;99.90;;;;;;5017090;28;20534;-51
2021/12/12 07:56:48;;;;;;;4.53;3.63;;;4.80;99.90;;;;;;5020185;28;20439;-53
2021/12/12 07:59:16;;;;;;;7.80;4.17;;;4.80;99.90;;;;;;5021362;28;20535;-51
2021/12/12 08:01:46;;;;;;;5.63;3.50;;;5.00;99.90;;;;;;5018931;28;20458;-52
2021/12/12 08:04:14;;;;;;;5.70;3.03;;;4.90;99.90;;;;;;5020380;28;20439;-54
2021/12/12 08:06:40;;;;;;;4.90;3.67;;;4.90;99.90;;;;;;5021895;28;20434;-51
2021/12/12 08:09:07;;;;;;;5.23;3.83;;;4.80;99.90;;;;;;5022071;28;20456;-55
2021/12/12 08:11:34;;;;;;;6.47;3.83;;;4.80;99.90;;;;;;5021034;28;20477;-54
2021/12/12 08:14:06;;;;;;;5.73;4.17;;;4.90;99.90;;;;;;5034752;28;20542;-49
2021/12/12 08:16:32;;;;;;;4.67;3.60;;;4.80;99.90;;;;;;5019393;28;20517;-53
2021/12/12 08:18:59;;;;;;;6.37;4.43;;;4.90;99.90;;;;;;5022671;28;20806;-53
2021/12/12 08:21:26;;;;;;;5.40;3.20;;;4.90;99.90;;;;;;5018763;28;20486;-52
2021/12/12 08:23:53;;;;;;;5.13;3.50;;;4.80;99.90;;;;;;5018682;28;20521;-55
2021/12/12 08:26:21;;;;;;;6.20;3.50;;;4.90;99.90;;;;;;5019305;28;20431;-51
2021/12/12 08:28:48;;;;;;;7.20;3.27;;;5.00;99.90;;;;;;5017187;28;20446;-54
2021/12/12 08:31:15;;;;;;;6.43;3.80;;;5.10;99.90;;;;;;5018902;28;20473;-56
2021/12/12 08:33:40;;;;;;;7.70;4.07;;;4.90;99.90;;;;;;5019353;28;20788;-51
2021/12/12 08:36:08;;;;;;;7.30;3.67;;;5.00;99.90;;;;;;5014560;28;20500;-50
2021/12/12 08:38:34;;;;;;;4.20;3.40;;;5.00;99.90;;;;;;5015150;28;20192;-54
2021/12/12 08:41:04;;;;;;;10.43;4.00;;;5.00;99.90;;;;;;5016307;28;20763;-54
2021/12/12 08:43:30;;;;;;;5.53;3.93;;;5.10;99.90;;;;;;5002510;28;21098;-56
2021/12/12 08:46:08;;;;;;;5.50;3.80;;;5.30;99.90;;;;;;5016823;28;20563;-55
2021/12/12 08:48:38;;;;;;;9.33;4.10;;;5.20;99.90;;;;;;5014674;28;20443;-53
2021/12/12 08:51:12;;;;;;;9.13;3.63;;;5.10;99.90;;;;;;5013494;28;20475;-56
2021/12/12 08:53:39;;;;;;;5.53;3.70;;;5.10;99.90;;;;;;5012024;28;20566;-50
2021/12/12 08:56:06;;;;;;;7.07;3.50;;;5.10;99.90;;;;;;5015341;28;20462;-55
2021/12/12 08:58:33;;;;;;;6.13;3.20;;;5.10;99.90;;;;;;5009812;28;20526;-52
2021/12/12 09:01:06;;;;;;;5.47;4.93;;;5.10;99.90;;;;;;5013846;28;20458;-54
2021/12/12 09:03:50;;;;;;;6.33;3.50;;;5.20;99.90;;;;;;5015153;28;20457;-52
2021/12/12 09:06:19;;;;;;;4.50;3.20;;;5.20;99.90;;;;;;5014990;28;20447;-51
2021/12/12 09:09:09;;;;;;;10.40;4.10;;;5.30;99.90;;;;;;5011926;28;20471;-57
2021/12/12 09:11:44;;;;;;;5.00;3.30;;;5.30;99.90;;;;;;5013508;28;20509;-54
2021/12/12 09:14:28;;;;;;;6.33;4.10;;;5.30;99.90;;;;;;5016402;28;20905;-48
2021/12/12 09:17:20;;;;;;;6.97;3.80;;;5.20;99.90;;;;;;5014405;28;20496;-53
2021/12/12 09:19:53;;;;;;;7.60;3.10;;;5.20;99.90;;;;;;5014009;28;20457;-56
2021/12/12 09:22:30;;;;;;;4.03;3.30;;;5.30;99.90;;;;;;5017258;28;20478;-54
2021/12/12 09:25:10;;;;;;;3.77;3.00;;;5.50;99.90;;;;;;5014548;28;20516;-48
2021/12/12 09:27:44;;;;;;;6.63;3.13;;;5.50;99.90;;;;;;5015442;28;20482;-52
2021/12/12 09:30:10;;;;;;;5.13;3.40;;;5.60;99.90;;;;;;5017588;28;20467;-53
2021/12/12 09:32:49;;;;;;;4.27;2.87;;;5.60;99.90;;;;;;5017226;28;20943;-54
2021/12/12 09:35:37;;;;;;;4.47;3.90;;;5.70;99.90;;;;;;5016780;28;20199;-51
2021/12/12 09:38:16;;;;;;;5.03;3.90;;;5.70;99.90;;;;;;5018549;28;20431;-54
2021/12/12 09:40:57;;;;;;;3.30;2.70;;;5.70;99.90;;;;;;5013573;28;20943;-55
2021/12/12 09:43:46;;;;;;;3.80;3.10;;;5.80;99.90;;;;;;5017908;28;21096;-55
2021/12/12 09:46:38;;;;;;;5.23;2.77;;;5.80;99.90;;;;;;5020735;28;20506;-51
2021/12/12 09:52:43;;;;;;;4.17;3.17;;;6.00;99.90;;;;;;5018007;28;21018;-54
2021/12/12 09:55:29;;;;;;;6.90;2.93;;;6.10;99.90;;;;;;4991565;28;20431;-52
2021/12/12 09:58:21;;;;;;;5.90;3.17;;;6.10;99.90;;;;;;5013375;28;20534;-53
2021/12/12 10:01:02;;;;;;;8.83;2.73;;;6.10;99.90;;;;;;5008934;28;20521;-52
2021/12/12 10:03:49;;;;;;;2.67;2.20;;;6.00;99.90;;;;;;5019319;28;20430;-53
2021/12/12 10:06:46;;;;;;;4.00;2.60;;;6.10;99.90;;;;;;5017848;28;20447;-51
2021/12/12 10:09:20;;;;;;;5.00;2.87;;;6.20;99.90;;;;;;5019439;28;20461;-53
2021/12/12 10:12:02;;;;;;;5.27;2.90;;;6.20;99.90;;;;;;5019718;28;20473;-54
2021/12/12 10:14:49;;;;;;;4.40;2.53;;;6.20;99.90;;;;;;5014032;28;20435;-53
2021/12/12 10:17:42;;;;;;;3.20;2.43;;;6.20;99.90;;;;;;5014416;28;21397;-55
2021/12/12 10:20:53;;;;;;;4.57;2.63;;;6.20;99.90;;;;;;5015871;28;20940;-55
2021/12/12 10:23:56;;;;;;;3.67;2.93;;;6.30;99.90;;;;;;5017127;28;20437;-51
2021/12/12 10:26:32;;;;;;;4.57;3.00;;;6.30;99.90;;;;;;5002751;28;20435;-56
2021/12/12 10:29:04;;;;;;;3.90;2.90;;;6.30;99.90;;;;;;5016669;28;20514;-54
2021/12/12 10:31:39;;;;;;;3.80;2.50;;;6.20;99.90;;;;;;5007993;28;20501;-53
2021/12/12 10:34:11;;;;;;;5.03;2.70;;;6.30;99.90;;;;;;5016307;28;20450;-55
2021/12/12 10:37:03;;;;;;;6.17;2.40;;;6.30;99.90;;;;;;5017588;28;20434;-54
2021/12/12 10:39:33;;;;;;;5.70;3.10;;;6.30;99.90;;;;;;5017051;28;20817;-53
2021/12/12 10:42:10;;;;;;;4.37;2.80;;;6.30;99.90;;;;;;5011737;28;20471;-54
2021/12/12 10:44:43;;;;;;;5.87;2.70;;;6.30;99.90;;;;;;5017857;28;20423;-54
2021/12/12 10:47:21;;;;;;;6.53;2.27;;;6.40;99.90;;;;;;5016927;28;20427;-54
2021/12/12 10:50:10;;;;;;;3.10;2.43;;;6.30;99.90;;;;;;5018308;28;20518;-55
2021/12/12 10:52:58;;;;;;;3.07;2.57;;;6.30;99.90;;;;;;5003472;28;20451;-52
2021/12/12 10:55:26;;;;;;;8.83;2.67;;;6.30;99.90;;;;;;5004711;28;20571;-53
2021/12/12 10:58:21;;;;;;;5.90;3.20;;;6.30;99.90;;;;;;5018226;28;20508;-51
2021/12/12 11:00:58;;;;;;;6.37;2.03;;;6.40;99.90;;;;;;5016472;28;20504;-54
2021/12/12 11:03:31;;;;;;;3.80;3.07;;;6.40;99.90;;;;;;5031332;28;20454;-52
2021/12/12 11:06:03;;;;;;;5.80;3.07;;;6.30;99.90;;;;;;5016801;28;20521;-55
2021/12/12 11:08:37;;;;;;;7.80;3.73;;;6.40;99.90;;;;;;5016273;28;20439;-53
2021/12/12 11:11:21;;;;;;;6.90;3.43;;;6.40;99.90;;;;;;5017315;28;20466;-54
2021/12/12 11:14:06;;;;;;;4.20;2.70;;;6.50;99.90;;;;;;5017386;28;20434;-52
2021/12/12 11:16:37;;;;;;;3.73;3.13;;;6.50;99.90;;;;;;5018793;28;20432;-55
2021/12/12 11:19:13;;;;;;;5.40;2.63;;;6.50;99.90;;;;;;5030645;28;20495;-51
2021/12/12 11:21:57;;;;;;;5.60;3.10;;;6.50;99.90;;;;;;5012882;28;20461;-55
2021/12/12 11:24:29;;;;;;;5.37;2.47;;;6.50;99.90;;;;;;5012877;28;20571;-56
2021/12/12 11:27:00;;;;;;;2.93;2.50;;;6.50;99.90;;;;;;5015945;28;20430;-54
2021/12/12 11:29:44;;;;;;;4.97;2.90;;;6.50;99.90;;;;;;5010842;28;20623;-53
2021/12/12 11:32:18;;;;;;;2.67;2.33;;;6.60;99.90;;;;;;5015018;28;20502;-53
2021/12/12 11:34:48;;;;;;;4.70;2.83;;;6.70;99.90;;;;;;5014713;28;20457;-50
2021/12/12 11:37:24;;;;;;;4.57;3.30;;;6.70;99.90;;;;;;5014999;28;20775;-53
2021/12/12 11:40:05;;;;;;;3.60;2.50;;;6.70;99.90;;;;;;5016008;28;20431;-53
2021/12/12 11:42:47;;;;;;;5.30;2.77;;;6.80;99.90;;;;;;5012844;28;20474;-55
2021/12/12 11:45:28;;;;;;;4.60;3.07;;;6.70;99.90;;;;;;5013960;28;20510;-54
2021/12/12 11:48:02;;;;;;;7.50;3.10;;;6.70;99.90;;;;;;5016577;28;20437;-54
2021/12/12 11:50:56;;;;;;;4.47;3.00;;;6.80;99.90;;;;;;5012029;28;20562;-55
2021/12/12 11:53:31;;;;;;;4.47;2.83;;;6.80;99.90;;;;;;5012818;28;20926;-52
2021/12/12 11:56:05;;;;;;;3.80;2.60;;;6.90;99.90;;;;;;5010907;28;20687;-54
2021/12/12 11:58:44;;;;;;;4.10;2.93;;;6.90;99.90;;;;;;5011077;28;20592;-54
2021/12/12 12:01:39;;;;;;;3.60;2.90;;;6.90;99.90;;;;;;5014613;28;20979;-53
2021/12/12 12:04:24;;;;;;;5.23;2.90;;;6.90;99.90;;;;;;4994983;28;20871;-54
2021/12/12 12:07:05;;;;;;;3.90;2.70;;;6.90;99.90;;;;;;5006178;28;20453;-51
2021/12/12 12:09:46;;;;;;;3.20;2.83;;;6.90;99.90;;;;;;5015688;28;20944;-55
2021/12/12 12:12:47;;;;;;;8.23;2.60;;;6.80;99.90;;;;;;5014779;28;20454;-53
2021/12/12 12:16:07;;;;;;;4.67;2.70;;;6.80;99.90;;;;;;4983252;28;21240;-52
2021/12/12 12:18:54;;;;;;;4.33;2.63;;;6.80;99.90;;;;;;4954506;28;20457;-53
2021/12/12 12:21:41;;;;;;;4.50;2.87;;;6.90;99.90;;;;;;5013394;28;20970;-55
2021/12/12 12:24:13;;;;;;;2.93;2.60;;;7.00;99.90;;;;;;5017069;28;20454;-54
2021/12/12 12:27:03;;;;;;;3.40;2.80;;;7.10;99.90;;;;;;5005070;28;20475;-54
2021/12/12 12:29:33;;;;;;;2.80;2.33;;;7.00;99.90;;;;;;5015011;28;20485;-51
2021/12/12 12:32:07;;;;;;;3.13;2.57;;;7.10;99.90;;;;;;5012156;28;20563;-52
2021/12/12 12:35:07;;;;;;;4.47;2.77;;;7.00;99.90;;;;;;5012877;28;20883;-54
2021/12/12 12:38:10;;;;;;;4.30;2.93;;;7.10;99.90;;;;;;5016062;28;20431;-50
2021/12/12 12:41:00;;;;;;;4.30;2.40;;;7.00;99.90;;;;;;5028948;28;21027;-49
2021/12/12 12:44:03;;;;;;;9.00;2.83;;;6.90;99.90;;;;;;5015977;28;20494;-51
2021/12/12 12:46:56;;;;;;;3.10;2.67;;;6.90;99.90;;;;;;5016664;28;20446;-53
2021/12/12 12:49:50;;;;;;;4.57;3.10;;;7.00;99.90;;;;;;5016923;28;20467;-54
2021/12/12 12:52:37;;;;;;;3.70;2.60;;;7.00;99.90;;;;;;5013718;28;20979;-52
2021/12/12 12:55:31;;;;;;;4.23;2.60;;;7.00;99.90;;;;;;5002434;28;20435;-54
2021/12/12 12:58:09;;;;;;;4.00;2.57;;;7.00;99.90;;;;;;5010908;28;20439;-54
2021/12/12 13:00:35;;;;;;;5.80;2.60;;;7.10;99.90;;;;;;5014207;28;20463;-53
2021/12/12 13:03:29;;;;;;;2.60;2.40;;;7.00;99.90;;;;;;5014297;28;20834;-53
2021/12/12 13:06:00;;;;;;;4.00;2.90;;;7.00;99.90;;;;;;5016560;28;20432;-53
2021/12/12 13:09:09;;;;;;;5.90;2.37;;;7.00;99.90;;;;;;5004255;28;20439;-52
2021/12/12 13:11:57;;;;;;;3.20;2.90;;;7.00;99.90;;;;;;5015818;28;20471;-49
2021/12/12 13:14:48;;;;;;;3.17;2.60;;;7.00;99.90;;;;;;5009295;28;20840;-53
2021/12/12 13:17:22;;;;;;;4.13;2.27;;;7.00;99.90;;;;;;5009230;28;20480;-48
2021/12/12 13:20:26;;;;;;;3.37;2.70;;;6.90;99.90;;;;;;5014547;28;20796;-50
2021/12/12 13:23:18;;;;;;;3.27;2.37;;;7.00;99.90;;;;;;5014819;28;20449;-50
2021/12/12 13:25:48;;;;;;;3.33;2.80;;;7.00;99.90;;;;;;5006995;28;20537;-51
2021/12/12 13:28:27;;;;;;;4.07;2.77;;;7.10;99.90;;;;;;5011864;28;20439;-51
2021/12/12 13:31:36;;;;;;;4.30;2.23;;;7.10;99.90;;;;;;5012705;28;20518;-51
2021/12/12 13:34:01;;;;;;;4.33;2.93;;;7.10;99.90;;;;;;5014289;28;20557;-53
2021/12/12 13:36:55;;;;;;;3.80;2.77;;;7.20;99.90;;;;;;5018866;28;20438;-53
2021/12/12 13:39:58;;;;;;;3.60;2.77;;;7.20;99.90;;;;;;5016246;28;20184;-52
2021/12/12 13:43:04;;;;;;;13.83;4.77;;;7.20;99.90;;;;;;5014152;28;20514;-50
2021/12/12 13:45:37;;;;;;;6.50;3.10;;;7.20;99.90;;;;;;5016118;28;20435;-50
2021/12/12 13:48:22;;;;;;;8.53;5.90;;;7.20;99.90;;;;;;5016865;28;20473;-53
2021/12/12 13:51:14;;;;;;;7.90;3.40;;;7.20;99.90;;;;;;5015113;28;20474;-51